createdAt,value
2023-03-19T00:00:43.480Z,44
2023-03-19T00:01:50.415Z,46
2023-03-19T00:02:57.520Z,46
2023-03-19T00:04:04.190Z,47
2023-03-19T00:05:11.012Z,45
2023-03-19T00:06:17.851Z,44
2023-03-19T00:07:24.711Z,43
2023-03-19T00:08:31.781Z,48
2023-03-19T00:09:38.861Z,43
2023-03-19T00:10:45.812Z,44
2023-03-19T00:11:54.033Z,44
2023-03-19T00:13:02.014Z,43
2023-03-19T00:14:08.892Z,42
2023-03-19T00:15:17.478Z,40
2023-03-19T00:16:25.475Z,44
2023-03-19T00:17:34.381Z,45
2023-03-19T00:18:41.189Z,44
2023-03-19T00:19:49.519Z,46
2023-03-19T00:20:56.636Z,51
2023-03-19T00:22:03.709Z,62
2023-03-19T00:23:10.596Z,68
2023-03-19T00:24:17.502Z,68
2023-03-19T00:25:24.316Z,66
2023-03-19T00:26:31.945Z,66
2023-03-19T00:27:38.769Z,65
2023-03-19T00:28:46.368Z,66
2023-03-19T00:29:53.284Z,68
2023-03-19T00:31:00.190Z,67
2023-03-19T00:32:13.078Z,58
2023-03-19T00:33:19.962Z,61
2023-03-19T00:34:26.798Z,60
2023-03-19T00:35:33.989Z,58
2023-03-19T00:36:42.212Z,60
2023-03-19T00:37:49.156Z,58
2023-03-19T00:38:58.979Z,58
2023-03-19T00:40:05.954Z,58
2023-03-19T00:41:13.148Z,61
2023-03-19T00:42:20.019Z,59
2023-03-19T00:43:27.378Z,59
2023-03-19T00:44:35.866Z,56
2023-03-19T00:45:42.843Z,55
2023-03-19T00:46:49.818Z,55
2023-03-19T00:47:56.696Z,54
2023-03-19T00:49:03.558Z,56
2023-03-19T00:50:10.404Z,59
2023-03-19T00:51:17.191Z,58
2023-03-19T00:52:24.068Z,57
2023-03-19T00:53:30.980Z,61
2023-03-19T00:54:43.467Z,62
2023-03-19T00:55:50.395Z,60
2023-03-19T00:56:57.196Z,55
2023-03-19T00:58:04.030Z,57
2023-03-19T00:59:10.952Z,51
2023-03-19T01:00:17.747Z,56
2023-03-19T01:01:24.739Z,51
2023-03-19T01:02:31.677Z,48
2023-03-19T01:03:38.528Z,47
2023-03-19T01:04:45.491Z,45
2023-03-19T01:05:52.403Z,47
2023-03-19T01:07:02.399Z,47
2023-03-19T01:08:09.353Z,42
2023-03-19T01:09:16.314Z,43
2023-03-19T01:10:23.230Z,44
2023-03-19T01:11:30.057Z,44
2023-03-19T01:12:36.890Z,41
2023-03-19T01:13:45.913Z,37
2023-03-19T01:14:52.863Z,40
2023-03-19T01:15:59.885Z,43
2023-03-19T01:17:06.752Z,38
2023-03-19T01:18:13.661Z,39
2023-03-19T01:19:20.443Z,39
2023-03-19T01:20:27.326Z,38
2023-03-19T01:21:34.288Z,37
2023-03-19T01:22:41.254Z,35
2023-03-19T01:23:48.208Z,38
2023-03-19T01:24:55.017Z,35
2023-03-19T01:26:01.832Z,33
2023-03-19T01:27:08.976Z,37
2023-03-19T01:28:15.873Z,36
2023-03-19T01:29:22.624Z,39
2023-03-19T01:30:29.544Z,37
2023-03-19T01:31:36.418Z,37
2023-03-19T01:32:43.188Z,35
2023-03-19T01:33:50.076Z,35
2023-03-19T01:34:56.839Z,36
2023-03-19T01:36:03.642Z,38
2023-03-19T01:37:10.725Z,38
2023-03-19T01:38:17.520Z,35
2023-03-19T01:39:24.393Z,36
2023-03-19T01:40:31.314Z,39
2023-03-19T01:41:37.989Z,42
2023-03-19T01:42:44.789Z,44
2023-03-19T01:43:56.660Z,40
2023-03-19T01:45:03.479Z,43
2023-03-19T01:46:10.457Z,40
2023-03-19T01:47:24.771Z,38
2023-03-19T01:48:31.720Z,37
2023-03-19T01:49:43.732Z,39
2023-03-19T01:50:54.699Z,37
2023-03-19T01:52:01.789Z,34
2023-03-19T01:53:10.203Z,39
2023-03-19T01:54:15.705Z,37
2023-03-19T01:55:22.707Z,36
2023-03-19T01:56:29.649Z,34
2023-03-19T01:57:36.514Z,35
2023-03-19T01:58:43.322Z,33
2023-03-19T01:59:50.182Z,32
2023-03-19T02:00:57.224Z,32
2023-03-19T02:02:04.099Z,33
2023-03-19T02:03:16.981Z,28
2023-03-19T02:04:23.949Z,32
2023-03-19T02:05:30.686Z,30
2023-03-19T02:06:37.678Z,29
2023-03-19T02:07:44.501Z,31
2023-03-19T02:08:51.584Z,28
2023-03-19T02:09:58.585Z,29
2023-03-19T02:11:05.462Z,30
2023-03-19T02:12:12.229Z,29
2023-03-19T02:13:19.097Z,28
2023-03-19T02:14:25.858Z,30
2023-03-19T02:15:32.761Z,31
2023-03-19T02:16:39.642Z,29
2023-03-19T02:17:46.478Z,28
2023-03-19T02:18:53.281Z,31
2023-03-19T02:20:00.150Z,29
2023-03-19T02:21:09.854Z,27
2023-03-19T02:22:16.768Z,25
2023-03-19T02:23:23.764Z,26
2023-03-19T02:24:40.933Z,25
2023-03-19T02:25:47.937Z,25
2023-03-19T02:26:59.822Z,24
2023-03-19T02:28:06.771Z,25
2023-03-19T02:29:16.195Z,25
2023-03-19T02:30:23.136Z,23
2023-03-19T02:31:30.020Z,24
2023-03-19T02:32:37.020Z,23
2023-03-19T02:33:43.945Z,23
2023-03-19T02:34:59.199Z,25
2023-03-19T02:36:06.213Z,24
2023-03-19T02:37:18.050Z,24
2023-03-19T02:38:27.628Z,26
2023-03-19T02:39:34.586Z,25
2023-03-19T02:40:41.327Z,28
2023-03-19T02:41:48.142Z,23
2023-03-19T02:42:55.090Z,25
2023-03-19T02:44:02.057Z,26
2023-03-19T02:45:09.003Z,23
2023-03-19T02:46:16.864Z,24
2023-03-19T02:47:23.779Z,23
2023-03-19T02:48:30.603Z,22
2023-03-19T02:49:37.528Z,23
2023-03-19T02:50:44.442Z,21
2023-03-19T02:51:51.381Z,23
2023-03-19T02:52:58.181Z,21
2023-03-19T02:54:05.051Z,20
2023-03-19T02:55:11.952Z,22
2023-03-19T02:56:18.803Z,19
2023-03-19T02:57:25.846Z,20
2023-03-19T02:58:32.708Z,19
2023-03-19T02:59:39.524Z,20
2023-03-19T03:00:46.518Z,18
2023-03-19T03:01:53.363Z,19
2023-03-19T03:03:00.145Z,21
2023-03-19T03:04:06.979Z,20
2023-03-19T03:05:15.294Z,18
2023-03-19T03:06:22.230Z,19
2023-03-19T03:07:38.328Z,19
2023-03-19T03:08:45.322Z,20
2023-03-19T03:09:52.259Z,18
2023-03-19T03:10:59.183Z,21
2023-03-19T03:12:06.042Z,18
2023-03-19T03:13:12.932Z,20
2023-03-19T03:14:19.774Z,19
2023-03-19T03:15:26.698Z,17
2023-03-19T03:16:33.662Z,19
2023-03-19T03:17:40.591Z,19
2023-03-19T03:18:47.373Z,17
2023-03-19T03:19:54.228Z,20
2023-03-19T03:21:01.082Z,20
2023-03-19T03:22:08.007Z,19
2023-03-19T03:23:14.861Z,20
2023-03-19T03:24:21.643Z,19
2023-03-19T03:25:28.516Z,18
2023-03-19T03:26:35.525Z,18
2023-03-19T03:27:42.363Z,20
2023-03-19T03:28:49.277Z,19
2023-03-19T03:29:56.055Z,17
2023-03-19T03:31:02.825Z,18
2023-03-19T03:32:09.685Z,19
2023-03-19T03:33:16.630Z,18
2023-03-19T03:34:23.476Z,19
2023-03-19T03:35:30.544Z,18
2023-03-19T03:36:37.360Z,19
2023-03-19T03:37:44.290Z,18
2023-03-19T03:38:53.903Z,19
2023-03-19T03:40:00.780Z,17
2023-03-19T03:41:07.875Z,18
2023-03-19T03:42:14.709Z,18
2023-03-19T03:43:21.527Z,17
2023-03-19T03:44:28.419Z,19
2023-03-19T03:45:35.260Z,18
2023-03-19T03:46:42.068Z,20
2023-03-19T03:47:48.920Z,20
2023-03-19T03:48:55.847Z,18
2023-03-19T03:50:02.628Z,18
2023-03-19T03:51:09.744Z,18
2023-03-19T03:52:16.527Z,20
2023-03-19T03:53:23.321Z,17
2023-03-19T03:54:30.135Z,19
2023-03-19T03:55:36.950Z,18
2023-03-19T03:56:43.785Z,19
2023-03-19T03:57:51.966Z,20
2023-03-19T03:58:58.863Z,18
2023-03-19T04:00:05.808Z,17
2023-03-19T04:01:13.165Z,16
2023-03-19T04:02:19.984Z,18
2023-03-19T04:03:26.881Z,19
2023-03-19T04:04:33.600Z,16
2023-03-19T04:05:40.434Z,19
2023-03-19T04:06:47.257Z,19
2023-03-19T04:07:54.073Z,19
2023-03-19T04:09:00.956Z,16
2023-03-19T04:10:07.815Z,19
2023-03-19T04:11:14.716Z,19
2023-03-19T04:12:21.628Z,18
2023-03-19T04:13:28.420Z,19
2023-03-19T04:14:35.300Z,19
2023-03-19T04:15:42.187Z,22
2023-03-19T04:16:49.131Z,20
2023-03-19T04:17:56.040Z,21
2023-03-19T04:19:02.950Z,20
2023-03-19T04:20:09.891Z,22
2023-03-19T04:21:16.721Z,20
2023-03-19T04:22:23.627Z,19
2023-03-19T04:23:30.484Z,21
2023-03-19T04:24:37.357Z,19
2023-03-19T04:25:44.313Z,20
2023-03-19T04:26:51.255Z,19
2023-03-19T04:27:58.104Z,21
2023-03-19T04:29:04.925Z,22
2023-03-19T04:30:11.735Z,22
2023-03-19T04:31:18.628Z,21
2023-03-19T04:32:25.420Z,20
2023-03-19T04:33:32.271Z,21
2023-03-19T04:34:39.111Z,20
2023-03-19T04:35:46.099Z,21
2023-03-19T04:36:52.855Z,20
2023-03-19T04:37:59.819Z,23
2023-03-19T04:39:06.778Z,20
2023-03-19T04:40:13.540Z,19
2023-03-19T04:41:20.488Z,19
2023-03-19T04:42:27.333Z,20
2023-03-19T04:43:34.195Z,19
2023-03-19T04:44:41.031Z,19
2023-03-19T04:45:47.819Z,21
2023-03-19T04:46:54.670Z,18
2023-03-19T04:48:01.545Z,19
2023-03-19T04:49:08.571Z,17
2023-03-19T04:50:15.482Z,19
2023-03-19T04:51:22.260Z,19
2023-03-19T04:52:29.090Z,19
2023-03-19T04:53:36.002Z,18
2023-03-19T04:54:42.810Z,18
2023-03-19T04:55:49.553Z,18
2023-03-19T04:56:56.421Z,16
2023-03-19T04:58:03.338Z,18
2023-03-19T04:59:10.153Z,19
2023-03-19T05:00:17.015Z,18
2023-03-19T05:01:24.123Z,19
2023-03-19T05:02:30.917Z,21
2023-03-19T05:03:37.746Z,20
2023-03-19T05:04:44.606Z,18
2023-03-19T05:05:51.390Z,18
2023-03-19T05:06:58.254Z,20
2023-03-19T05:08:05.064Z,20
2023-03-19T05:09:11.876Z,21
2023-03-19T05:10:18.762Z,21
2023-03-19T05:11:25.638Z,19
2023-03-19T05:12:32.400Z,18
2023-03-19T05:13:39.212Z,20
2023-03-19T05:14:45.994Z,22
2023-03-19T05:15:52.859Z,21
2023-03-19T05:16:59.697Z,21
2023-03-19T05:18:06.547Z,20
2023-03-19T05:19:13.594Z,22
2023-03-19T05:20:20.498Z,20
2023-03-19T05:21:27.316Z,19
2023-03-19T05:22:34.194Z,22
2023-03-19T05:23:41.153Z,20
2023-03-19T05:24:48.049Z,20
2023-03-19T05:25:54.906Z,19
2023-03-19T05:27:01.641Z,22
2023-03-19T05:28:08.616Z,32
2023-03-19T05:29:15.374Z,40
2023-03-19T05:30:22.258Z,50
2023-03-19T05:31:29.168Z,52
2023-03-19T05:32:35.951Z,48
2023-03-19T05:33:42.769Z,47
2023-03-19T05:34:49.749Z,44
2023-03-19T05:35:58.334Z,39
2023-03-19T05:37:03.337Z,32
2023-03-19T05:38:10.198Z,31
2023-03-19T05:39:16.931Z,27
2023-03-19T05:40:23.837Z,25
2023-03-19T05:41:30.673Z,25
2023-03-19T05:42:37.520Z,31
2023-03-19T05:43:44.362Z,26
2023-03-19T05:44:51.196Z,26
2023-03-19T05:45:58.048Z,25
2023-03-19T05:47:04.871Z,24
2023-03-19T05:48:13.020Z,27
2023-03-19T05:49:19.872Z,22
2023-03-19T05:50:26.665Z,23
2023-03-19T05:51:33.471Z,26
2023-03-19T05:52:40.417Z,22
2023-03-19T05:53:47.239Z,23
2023-03-19T05:54:54.027Z,22
2023-03-19T05:56:00.875Z,25
2023-03-19T05:57:07.842Z,28
2023-03-19T05:58:14.671Z,24
2023-03-19T05:59:21.515Z,25
2023-03-19T06:00:28.378Z,25
2023-03-19T06:01:35.234Z,24
2023-03-19T06:02:42.142Z,25
2023-03-19T06:03:49.003Z,30
2023-03-19T06:04:55.845Z,29
2023-03-19T06:06:02.653Z,26
2023-03-19T06:07:09.578Z,28
2023-03-19T06:08:16.405Z,27
2023-03-19T06:09:23.359Z,25
2023-03-19T06:10:30.398Z,25
2023-03-19T06:11:37.330Z,23
2023-03-19T06:12:44.154Z,24
2023-03-19T06:13:50.978Z,25
2023-03-19T06:14:57.757Z,22
2023-03-19T06:16:04.780Z,23
2023-03-19T06:17:11.536Z,23
2023-03-19T06:18:18.359Z,22
2023-03-19T06:19:25.212Z,23
2023-03-19T06:20:32.425Z,23
2023-03-19T06:21:38.929Z,24
2023-03-19T06:22:45.748Z,25
2023-03-19T06:23:52.575Z,23
2023-03-19T06:24:59.420Z,29
2023-03-19T06:26:06.433Z,27
2023-03-19T06:27:13.480Z,26
2023-03-19T06:28:20.503Z,25
2023-03-19T06:29:27.237Z,23
2023-03-19T06:30:34.268Z,23
2023-03-19T06:31:41.017Z,23
2023-03-19T06:32:47.854Z,20
2023-03-19T06:33:58.413Z,20
2023-03-19T06:35:05.465Z,21
2023-03-19T06:36:12.469Z,20
2023-03-19T06:37:19.299Z,21
2023-03-19T06:38:26.085Z,20
2023-03-19T06:39:32.955Z,19
2023-03-19T06:40:39.923Z,20
2023-03-19T06:41:46.813Z,20
2023-03-19T06:42:53.752Z,20
2023-03-19T06:44:00.587Z,21
2023-03-19T06:45:07.402Z,20
2023-03-19T06:46:14.616Z,20
2023-03-19T06:47:21.303Z,20
2023-03-19T06:48:28.362Z,20
2023-03-19T06:49:35.218Z,22
2023-03-19T06:50:42.025Z,21
2023-03-19T06:51:48.943Z,21
2023-03-19T06:52:55.838Z,22
2023-03-19T06:54:02.710Z,24
2023-03-19T06:55:09.539Z,24
2023-03-19T06:56:16.359Z,25
2023-03-19T06:57:23.282Z,25
2023-03-19T06:58:30.189Z,25
2023-03-19T06:59:37.074Z,28
2023-03-19T07:00:43.879Z,27
2023-03-19T07:01:50.610Z,24
2023-03-19T07:02:57.441Z,27
2023-03-19T07:04:04.279Z,27
2023-03-19T07:05:11.090Z,22
2023-03-19T07:06:17.967Z,26
2023-03-19T07:07:24.813Z,27
2023-03-19T07:08:31.640Z,24
2023-03-19T07:09:38.557Z,27
2023-03-19T07:10:45.399Z,23
2023-03-19T07:11:52.322Z,20
2023-03-19T07:12:59.144Z,21
2023-03-19T07:14:05.970Z,19
2023-03-19T07:15:12.897Z,23
2023-03-19T07:16:19.730Z,20
2023-03-19T07:17:26.526Z,20
2023-03-19T07:18:33.338Z,18
2023-03-19T07:19:40.172Z,20
2023-03-19T07:20:46.998Z,19
2023-03-19T07:21:53.858Z,17
2023-03-19T07:23:00.604Z,17
2023-03-19T07:24:07.404Z,16
2023-03-19T07:25:14.273Z,16
2023-03-19T07:26:21.904Z,16
2023-03-19T07:27:28.808Z,16
2023-03-19T07:28:35.714Z,16
2023-03-19T07:29:42.609Z,15
2023-03-19T07:30:52.339Z,14
2023-03-19T07:31:59.297Z,16
2023-03-19T07:33:10.856Z,17
2023-03-19T07:34:21.011Z,14
2023-03-19T07:35:27.851Z,16
2023-03-19T07:36:34.753Z,14
2023-03-19T07:37:41.822Z,15
2023-03-19T07:38:48.762Z,16
2023-03-19T07:39:57.423Z,16
2023-03-19T07:41:05.162Z,18
2023-03-19T07:42:12.066Z,16
2023-03-19T07:43:18.994Z,15
2023-03-19T07:44:25.831Z,14
2023-03-19T07:45:32.743Z,14
2023-03-19T07:46:39.615Z,13
2023-03-19T07:47:47.872Z,15
2023-03-19T07:48:53.341Z,13
2023-03-19T07:50:00.149Z,14
2023-03-19T07:51:07.146Z,17
2023-03-19T07:52:14.065Z,14
2023-03-19T07:53:20.813Z,18
2023-03-19T07:54:27.666Z,14
2023-03-19T07:55:35.996Z,15
2023-03-19T07:56:41.455Z,16
2023-03-19T07:57:48.292Z,18
2023-03-19T07:58:55.077Z,19
2023-03-19T08:00:01.892Z,15
2023-03-19T08:01:08.954Z,15
2023-03-19T08:02:15.924Z,16
2023-03-19T08:03:22.705Z,13
2023-03-19T08:04:29.473Z,15
2023-03-19T08:05:36.278Z,15
2023-03-19T08:06:43.037Z,15
2023-03-19T08:07:49.772Z,15
2023-03-19T08:08:56.615Z,16
2023-03-19T08:10:03.491Z,16
2023-03-19T08:11:10.428Z,15
2023-03-19T08:12:17.244Z,16
2023-03-19T08:13:24.106Z,16
2023-03-19T08:14:31.047Z,16
2023-03-19T08:15:37.863Z,13
2023-03-19T08:16:44.705Z,13
2023-03-19T08:17:51.480Z,14
2023-03-19T08:19:03.384Z,14
2023-03-19T08:20:10.216Z,15
2023-03-19T08:21:17.081Z,15
2023-03-19T08:22:23.987Z,16
2023-03-19T08:23:31.325Z,17
2023-03-19T08:24:38.294Z,14
2023-03-19T08:25:45.123Z,14
2023-03-19T08:26:51.932Z,16
2023-03-19T08:27:58.884Z,15
2023-03-19T08:29:05.824Z,15
2023-03-19T08:30:12.620Z,14
2023-03-19T08:31:19.544Z,14
2023-03-19T08:32:26.360Z,13
2023-03-19T08:33:33.223Z,14
2023-03-19T08:34:40.055Z,15
2023-03-19T08:35:46.948Z,14
2023-03-19T08:36:53.708Z,14
2023-03-19T08:38:00.531Z,13
2023-03-19T08:39:07.314Z,14
2023-03-19T08:40:14.121Z,15
2023-03-19T08:41:21.005Z,14
2023-03-19T08:42:27.819Z,13
2023-03-19T08:43:34.600Z,15
2023-03-19T08:44:41.520Z,16
2023-03-19T08:45:48.347Z,15
2023-03-19T08:46:55.126Z,16
2023-03-19T08:48:02.124Z,13
2023-03-19T08:49:08.949Z,15
2023-03-19T08:50:15.735Z,13
2023-03-19T08:51:22.682Z,13
2023-03-19T08:52:29.494Z,14
2023-03-19T08:53:36.251Z,13
2023-03-19T08:54:43.085Z,14
2023-03-19T08:55:50.039Z,14
2023-03-19T08:56:56.946Z,13
2023-03-19T08:58:03.854Z,13
2023-03-19T08:59:10.856Z,12
2023-03-19T09:00:17.623Z,12
2023-03-19T09:01:24.653Z,12
2023-03-19T09:02:31.412Z,13
2023-03-19T09:03:38.272Z,12
2023-03-19T09:04:45.298Z,13
2023-03-19T09:05:52.125Z,12
2023-03-19T09:06:58.886Z,13
2023-03-19T09:08:05.775Z,12
2023-03-19T09:09:12.681Z,13
2023-03-19T09:10:19.520Z,12
2023-03-19T09:11:26.381Z,13
2023-03-19T09:12:33.186Z,14
2023-03-19T09:13:40.114Z,12
2023-03-19T09:14:46.945Z,11
2023-03-19T09:15:53.966Z,11
2023-03-19T09:17:00.941Z,14
2023-03-19T09:18:07.795Z,13
2023-03-19T09:19:14.742Z,13
2023-03-19T09:20:21.611Z,15
2023-03-19T09:21:28.383Z,13
2023-03-19T09:22:35.211Z,13
2023-03-19T09:23:41.996Z,12
2023-03-19T09:24:48.854Z,12
2023-03-19T09:25:55.840Z,12
2023-03-19T09:27:02.619Z,12
2023-03-19T09:28:09.447Z,13
2023-03-19T09:29:16.227Z,13
2023-03-19T09:30:23.084Z,11
2023-03-19T09:31:30.164Z,12
2023-03-19T09:32:36.731Z,13
2023-03-19T09:33:43.615Z,14
2023-03-19T09:34:50.426Z,11
2023-03-19T09:35:57.228Z,12
2023-03-19T09:37:04.156Z,12
2023-03-19T09:38:11.059Z,14
2023-03-19T09:39:17.870Z,11
2023-03-19T09:40:24.667Z,11
2023-03-19T09:41:36.523Z,12
2023-03-19T09:42:51.259Z,13
2023-03-19T09:44:01.422Z,12
2023-03-19T09:45:13.386Z,10
2023-03-19T09:46:22.593Z,11
2023-03-19T09:47:27.132Z,11
2023-03-19T09:48:36.941Z,12
2023-03-19T09:49:43.785Z,12
2023-03-19T09:50:50.618Z,13
2023-03-19T09:51:57.473Z,11
2023-03-19T09:53:14.404Z,12
2023-03-19T09:54:21.241Z,12
2023-03-19T09:55:35.914Z,11
2023-03-19T09:56:50.370Z,11
2023-03-19T09:57:57.330Z,12
2023-03-19T09:59:04.128Z,12
2023-03-19T10:00:11.014Z,12
2023-03-19T10:01:20.864Z,12
2023-03-19T10:02:27.728Z,12
2023-03-19T10:03:34.589Z,12
2023-03-19T10:04:46.502Z,11
2023-03-19T10:05:58.341Z,11
2023-03-19T10:07:12.717Z,13
2023-03-19T10:08:25.236Z,13
2023-03-19T10:09:37.103Z,12
2023-03-19T10:10:48.971Z,13
2023-03-19T10:12:03.778Z,11
2023-03-19T10:13:18.236Z,13
2023-03-19T10:14:30.177Z,13
2023-03-19T10:15:47.202Z,13
2023-03-19T10:16:54.064Z,14
2023-03-19T10:18:00.988Z,12
2023-03-19T10:19:17.950Z,13
2023-03-19T10:20:24.883Z,15
2023-03-19T10:21:32.481Z,11
2023-03-19T10:22:47.370Z,13
2023-03-19T10:23:56.474Z,15
2023-03-19T10:25:06.652Z,14
2023-03-19T10:26:13.535Z,12
2023-03-19T10:27:20.453Z,14
2023-03-19T10:28:27.273Z,14
2023-03-19T10:29:34.186Z,12
2023-03-19T10:30:41.079Z,11
2023-03-19T10:31:48.089Z,14
2023-03-19T10:33:00.069Z,16
2023-03-19T10:34:11.982Z,17
2023-03-19T10:35:26.606Z,15
2023-03-19T10:36:38.779Z,14
2023-03-19T10:37:45.466Z,12
2023-03-19T10:38:52.354Z,14
2023-03-19T10:39:59.955Z,13
2023-03-19T10:41:06.935Z,12
2023-03-19T10:42:21.829Z,12
2023-03-19T10:43:38.764Z,13
2023-03-19T10:44:45.581Z,12
2023-03-19T10:46:00.095Z,14
2023-03-19T10:47:06.987Z,12
2023-03-19T10:48:13.937Z,11
2023-03-19T10:49:20.817Z,11
2023-03-19T10:50:27.752Z,13
2023-03-19T10:51:37.683Z,12
2023-03-19T10:52:51.316Z,14
2023-03-19T10:54:01.925Z,14
2023-03-19T10:55:10.879Z,16
2023-03-19T10:56:20.756Z,12
2023-03-19T10:57:27.561Z,15
2023-03-19T10:58:37.292Z,13
2023-03-19T10:59:44.093Z,12
2023-03-19T11:00:50.961Z,12
2023-03-19T11:02:00.427Z,12
2023-03-19T11:03:17.389Z,12
2023-03-19T11:04:32.099Z,13
2023-03-19T11:05:38.930Z,12
2023-03-19T11:06:45.822Z,13
2023-03-19T11:07:52.789Z,13
2023-03-19T11:09:01.430Z,11
2023-03-19T11:10:11.142Z,13
2023-03-19T11:11:17.874Z,14
2023-03-19T11:12:29.797Z,13
2023-03-19T11:13:39.500Z,14
2023-03-19T11:14:46.354Z,13
2023-03-19T11:15:53.240Z,14
2023-03-19T11:17:01.776Z,13
2023-03-19T11:18:09.599Z,14
2023-03-19T11:19:24.479Z,16
2023-03-19T11:20:31.294Z,13
2023-03-19T11:21:38.084Z,12
2023-03-19T11:22:44.943Z,12
2023-03-19T11:23:51.730Z,12
2023-03-19T11:25:03.692Z,13
2023-03-19T11:26:20.636Z,14
2023-03-19T11:27:27.499Z,12
2023-03-19T11:28:34.458Z,13
2023-03-19T11:29:41.387Z,12
2023-03-19T11:30:48.258Z,12
2023-03-19T11:32:15.134Z,11
2023-03-19T11:33:19.882Z,13
2023-03-19T11:34:34.659Z,13
2023-03-19T11:35:46.665Z,13
2023-03-19T11:37:03.563Z,13
2023-03-19T11:38:18.521Z,14
2023-03-19T11:39:28.250Z,13
2023-03-19T11:40:40.089Z,13
2023-03-19T11:41:50.401Z,12
2023-03-19T11:43:07.322Z,14
2023-03-19T11:44:19.243Z,12
2023-03-19T11:45:38.012Z,12
2023-03-19T11:46:51.083Z,14
2023-03-19T11:47:57.885Z,13
2023-03-19T11:49:14.809Z,13
2023-03-19T11:50:27.491Z,14
2023-03-19T11:51:44.586Z,12
2023-03-19T11:53:01.798Z,12
2023-03-19T11:54:11.246Z,13
2023-03-19T11:55:28.193Z,14
2023-03-19T11:56:40.093Z,14
2023-03-19T11:57:46.996Z,14
2023-03-19T11:59:03.846Z,13
2023-03-19T12:00:20.855Z,12
2023-03-19T12:01:32.734Z,14
2023-03-19T12:02:42.417Z,13
2023-03-19T12:03:52.023Z,13
2023-03-19T12:05:08.920Z,14
2023-03-19T12:06:25.859Z,15
2023-03-19T12:07:42.882Z,14
2023-03-19T12:08:54.861Z,14
2023-03-19T12:10:09.289Z,13
2023-03-19T12:11:21.168Z,13
2023-03-19T12:12:35.887Z,13
2023-03-19T12:13:50.779Z,15
2023-03-19T12:15:05.505Z,12
2023-03-19T12:16:20.124Z,13
2023-03-19T12:17:37.101Z,14
2023-03-19T12:18:46.813Z,12
2023-03-19T12:19:56.223Z,14
2023-03-19T12:21:10.939Z,15
2023-03-19T12:22:20.421Z,13
2023-03-19T12:23:36.043Z,16
2023-03-19T12:24:47.040Z,16
2023-03-19T12:25:59.102Z,14
2023-03-19T12:27:13.430Z,15
2023-03-19T12:28:25.359Z,16
2023-03-19T12:29:38.680Z,14
2023-03-19T12:30:50.596Z,13
2023-03-19T12:32:00.455Z,13
2023-03-19T12:33:09.832Z,13
2023-03-19T12:34:19.317Z,15
2023-03-19T12:35:31.417Z,17
2023-03-19T12:36:38.261Z,16
2023-03-19T12:37:50.334Z,14
2023-03-19T12:39:07.253Z,15
2023-03-19T12:40:17.149Z,13
2023-03-19T12:41:34.220Z,17
2023-03-19T12:42:41.138Z,13
2023-03-19T12:43:47.964Z,13
2023-03-19T12:44:59.869Z,15
2023-03-19T12:46:07.144Z,15
2023-03-19T12:47:19.250Z,16
2023-03-19T12:48:29.006Z,14
2023-03-19T12:49:35.838Z,13
2023-03-19T12:50:45.489Z,12
2023-03-19T12:51:52.344Z,15
2023-03-19T12:53:09.348Z,13
2023-03-19T12:54:21.220Z,13
2023-03-19T12:55:28.202Z,13
2023-03-19T12:56:42.723Z,11
2023-03-19T12:57:55.687Z,11
2023-03-19T12:59:07.641Z,12
2023-03-19T13:00:15.494Z,14
2023-03-19T13:01:25.911Z,16
2023-03-19T13:02:32.936Z,22
2023-03-19T13:03:49.792Z,24
2023-03-19T13:05:04.512Z,26
2023-03-19T13:06:21.447Z,19
2023-03-19T13:07:31.290Z,13
2023-03-19T13:08:46.224Z,11
2023-03-19T13:10:03.291Z,11
2023-03-19T13:11:10.231Z,10
2023-03-19T13:12:17.013Z,10
2023-03-19T13:13:26.474Z,10
2023-03-19T13:14:43.417Z,9
2023-03-19T13:15:55.337Z,10
2023-03-19T13:17:02.133Z,12
2023-03-19T13:18:14.001Z,14
2023-03-19T13:19:25.929Z,16
2023-03-19T13:20:43.072Z,13
2023-03-19T13:21:57.626Z,10
2023-03-19T13:23:04.404Z,13
2023-03-19T13:24:11.269Z,14
2023-03-19T13:25:28.223Z,14
2023-03-19T13:26:37.786Z,12
2023-03-19T13:27:44.588Z,15
2023-03-19T13:28:56.396Z,21
2023-03-19T13:30:09.306Z,17
2023-03-19T13:31:16.144Z,16
2023-03-19T13:32:22.882Z,11
2023-03-19T13:33:39.803Z,10
2023-03-19T13:34:46.824Z,11
2023-03-19T13:35:53.823Z,10
2023-03-19T13:37:00.644Z,10
2023-03-19T13:38:07.668Z,12
2023-03-19T13:39:18.923Z,12
2023-03-19T13:40:28.832Z,11
2023-03-19T13:41:40.732Z,13
2023-03-19T13:42:47.550Z,12
2023-03-19T13:43:54.524Z,14
2023-03-19T13:45:03.533Z,12
2023-03-19T13:46:13.285Z,11
2023-03-19T13:47:20.100Z,10
2023-03-19T13:48:29.841Z,11
2023-03-19T13:49:39.657Z,10
2023-03-19T13:50:46.520Z,12
2023-03-19T13:52:01.288Z,9
2023-03-19T13:53:13.171Z,9
2023-03-19T13:54:25.102Z,11
2023-03-19T13:55:34.679Z,11
2023-03-19T13:56:51.720Z,11
2023-03-19T13:58:01.704Z,10
2023-03-19T13:59:16.431Z,10
2023-03-19T14:00:25.895Z,9
2023-03-19T14:01:42.763Z,8
2023-03-19T14:02:51.733Z,9
2023-03-19T14:03:58.851Z,10
2023-03-19T14:05:08.749Z,10
2023-03-19T14:06:20.924Z,9
2023-03-19T14:07:34.018Z,9
2023-03-19T14:08:44.298Z,8
2023-03-19T14:09:52.409Z,8
2023-03-19T14:11:02.392Z,10
2023-03-19T14:12:09.424Z,10
2023-03-19T14:13:21.397Z,9
2023-03-19T14:14:28.299Z,9
2023-03-19T14:15:38.332Z,12
2023-03-19T14:16:45.255Z,8
2023-03-19T14:17:52.080Z,9
2023-03-19T14:19:04.894Z,12
2023-03-19T14:20:15.200Z,9
2023-03-19T14:21:23.177Z,11
2023-03-19T14:22:35.088Z,10
2023-03-19T14:23:52.766Z,14
2023-03-19T14:24:58.894Z,12
2023-03-19T14:26:15.837Z,10
2023-03-19T14:27:22.609Z,11
2023-03-19T14:28:31.923Z,12
2023-03-19T14:29:43.824Z,11
2023-03-19T14:30:50.643Z,11
2023-03-19T14:31:57.500Z,10
2023-03-19T14:33:07.428Z,9
2023-03-19T14:34:19.624Z,9
2023-03-19T14:35:36.454Z,13
2023-03-19T14:36:43.283Z,19
2023-03-19T14:38:00.187Z,34
2023-03-19T14:39:06.995Z,30
2023-03-19T14:40:21.352Z,32
2023-03-19T14:41:33.178Z,23
2023-03-19T14:42:39.962Z,20
2023-03-19T14:43:49.674Z,47
2023-03-19T14:45:04.376Z,43
2023-03-19T14:46:11.197Z,30
2023-03-19T14:47:28.145Z,18
2023-03-19T14:48:37.529Z,18
2023-03-19T14:49:54.505Z,19
2023-03-19T14:51:11.412Z,25
2023-03-19T14:52:28.379Z,20
2023-03-19T14:53:35.260Z,16
2023-03-19T14:54:42.052Z,36
2023-03-19T14:55:51.423Z,40
2023-03-19T14:56:58.273Z,35
2023-03-19T14:58:10.086Z,20
2023-03-19T14:59:16.945Z,15
2023-03-19T15:00:23.757Z,13
2023-03-19T15:01:30.807Z,16
2023-03-19T15:02:37.557Z,16
2023-03-19T15:03:44.402Z,25
2023-03-19T15:04:51.257Z,18
2023-03-19T15:05:58.004Z,19
2023-03-19T15:07:04.850Z,19
2023-03-19T15:08:11.707Z,16
2023-03-19T15:09:18.507Z,19
2023-03-19T15:10:33.209Z,17
2023-03-19T15:11:47.924Z,16
2023-03-19T15:12:57.484Z,14
2023-03-19T15:14:09.318Z,11
2023-03-19T15:15:24.102Z,11
2023-03-19T15:16:38.846Z,11
2023-03-19T15:18:02.847Z,13
2023-03-19T15:19:05.387Z,10
2023-03-19T15:20:12.164Z,11
2023-03-19T15:21:21.632Z,14
2023-03-19T15:22:28.494Z,15
2023-03-19T15:23:35.283Z,12
2023-03-19T15:24:42.125Z,13
2023-03-19T15:25:48.915Z,12
2023-03-19T15:27:00.977Z,10
2023-03-19T15:28:18.594Z,10
2023-03-19T15:29:25.289Z,11
2023-03-19T15:30:50.247Z,11
2023-03-19T15:31:50.782Z,12
2023-03-19T15:33:03.711Z,11
2023-03-19T15:33:58.045Z,11
2023-03-19T15:35:04.946Z,10
2023-03-19T15:36:11.620Z,12
2023-03-19T15:37:28.668Z,12
2023-03-19T15:38:35.459Z,10
2023-03-19T15:39:42.311Z,11
2023-03-19T15:40:49.188Z,10
2023-03-19T15:41:56.078Z,11
2023-03-19T15:43:02.887Z,11
2023-03-19T15:44:09.804Z,11
2023-03-19T15:45:21.649Z,10
2023-03-19T15:46:28.507Z,13
2023-03-19T15:47:35.404Z,11
2023-03-19T15:48:42.195Z,12
2023-03-19T15:49:55.024Z,12
2023-03-19T15:51:01.880Z,11
2023-03-19T15:52:08.916Z,11
2023-03-19T15:53:15.740Z,11
2023-03-19T15:54:22.492Z,11
2023-03-19T15:55:29.386Z,11
2023-03-19T15:56:36.156Z,11
2023-03-19T15:57:43.127Z,11
2023-03-19T15:58:51.982Z,11
2023-03-19T15:59:56.719Z,13
2023-03-19T16:01:03.675Z,13
2023-03-19T16:02:10.479Z,15
2023-03-19T16:03:20.037Z,15
2023-03-19T16:04:29.875Z,15
2023-03-19T16:05:36.615Z,15
2023-03-19T16:06:43.506Z,16
2023-03-19T16:07:50.340Z,18
2023-03-19T16:09:02.972Z,17
2023-03-19T16:10:17.790Z,18
2023-03-19T16:11:27.772Z,19
2023-03-19T16:12:37.509Z,19
2023-03-19T16:13:44.318Z,18
2023-03-19T16:14:56.141Z,18
2023-03-19T16:16:02.957Z,16
2023-03-19T16:17:12.963Z,14